createdAt,value
2022-11-13T00:01:45.919Z,13.73
2022-11-13T00:04:17.834Z,13.10
2022-11-13T00:06:52.517Z,15.32
2022-11-13T00:09:26.563Z,14.60
2022-11-13T00:11:58.279Z,14.70
2022-11-13T00:14:29.984Z,15.47
2022-11-13T00:17:01.674Z,16.60
2022-11-13T00:19:33.462Z,14.73
2022-11-13T00:22:05.155Z,13.93
2022-11-13T00:24:36.887Z,22.90
2022-11-13T00:27:08.658Z,23.43
2022-11-13T00:29:41.094Z,24.40
2022-11-13T00:32:13.321Z,23.20
2022-11-13T00:34:48.639Z,24.27
2022-11-13T00:37:20.522Z,22.70
2022-11-13T00:39:55.694Z,21.10
2022-11-13T00:42:31.314Z,18.77
2022-11-13T00:45:03.134Z,17.03
2022-11-13T00:47:35.595Z,15.50
2022-11-13T00:50:08.413Z,15.20
2022-11-13T00:52:40.204Z,13.83
2022-11-13T00:55:11.919Z,12.93
2022-11-13T00:57:43.821Z,13.33
2022-11-13T01:00:16.070Z,13.90
2022-11-13T01:02:47.746Z,12.57
2022-11-13T01:05:20.043Z,12.77
2022-11-13T01:07:51.742Z,18.10
2022-11-13T01:10:23.894Z,17.13
2022-11-13T01:12:55.688Z,14.23
2022-11-13T01:15:27.555Z,13.40
2022-11-13T01:17:59.794Z,13.10
2022-11-13T01:20:32.977Z,12.90
2022-11-13T01:23:05.790Z,13.40
2022-11-13T01:25:37.551Z,16.00
2022-11-13T01:28:10.422Z,13.73
2022-11-13T01:30:42.192Z,14.67
2022-11-13T01:33:14.768Z,15.70
2022-11-13T01:35:46.482Z,14.30
2022-11-13T01:38:18.313Z,16.00
2022-11-13T01:40:50.137Z,13.90
2022-11-13T01:43:34.359Z,17.07
2022-11-13T01:46:23.803Z,15.63
2022-11-13T01:49:08.034Z,15.80
2022-11-13T01:51:45.292Z,16.07
2022-11-13T01:54:22.153Z,16.37
2022-11-13T01:56:55.031Z,15.57
2022-11-13T01:59:30.965Z,19.13
2022-11-13T02:02:02.703Z,18.07
2022-11-13T02:04:34.812Z,16.83
2022-11-13T02:07:10.155Z,15.70
2022-11-13T02:09:45.264Z,16.90
2022-11-13T02:12:37.371Z,22.47
2022-11-13T02:15:09.840Z,23.30
2022-11-13T02:17:52.533Z,16.03
2022-11-13T02:21:01.437Z,15.67
2022-11-13T02:24:09.966Z,17.00
2022-11-13T02:26:42.539Z,16.77
2022-11-13T02:29:14.677Z,14.03
2022-11-13T02:31:46.556Z,15.33
2022-11-13T02:34:18.601Z,17.47
2022-11-13T02:36:50.554Z,16.80
2022-11-13T02:39:22.466Z,17.10
2022-11-13T02:41:54.360Z,13.77
2022-11-13T02:44:26.075Z,18.55
2022-11-13T02:46:58.015Z,17.13
2022-11-13T02:49:29.765Z,15.10
2022-11-13T02:52:01.603Z,15.50
2022-11-13T02:54:33.337Z,14.77
2022-11-13T02:57:05.109Z,14.17
2022-11-13T02:59:36.963Z,15.03
2022-11-13T03:02:08.756Z,15.53
2022-11-13T03:05:10.429Z,14.10
2022-11-13T03:07:33.089Z,14.33
2022-11-13T03:10:05.309Z,13.70
2022-11-13T03:12:37.416Z,15.50
2022-11-13T03:15:09.602Z,15.43
2022-11-13T03:17:41.362Z,14.37
2022-11-13T03:20:13.037Z,13.73
2022-11-13T03:22:45.521Z,14.93
2022-11-13T03:25:17.412Z,15.17
2022-11-13T03:27:49.193Z,15.00
2022-11-13T03:30:21.099Z,15.33
2022-11-13T03:32:56.280Z,14.03
2022-11-13T03:35:31.787Z,14.30
2022-11-13T03:38:05.349Z,13.82
2022-11-13T03:40:37.038Z,14.33
2022-11-13T03:43:10.122Z,13.90
2022-11-13T03:45:43.910Z,15.17
2022-11-13T03:48:16.516Z,14.90
2022-11-13T03:50:50.754Z,15.40
2022-11-13T03:53:22.453Z,12.90
2022-11-13T03:55:54.367Z,12.83
2022-11-13T03:58:26.826Z,16.10
2022-11-13T04:00:58.782Z,15.10
2022-11-13T04:03:30.753Z,15.10
2022-11-13T04:06:02.512Z,13.90
2022-11-13T04:08:34.248Z,12.83
2022-11-13T04:11:11.299Z,13.60
2022-11-13T04:13:42.985Z,14.43
2022-11-13T04:16:14.746Z,15.33
2022-11-13T04:18:46.544Z,12.73
2022-11-13T04:21:18.378Z,12.97
2022-11-13T04:23:50.126Z,14.23
2022-11-13T04:26:21.954Z,12.80
2022-11-13T04:28:53.665Z,12.83
2022-11-13T04:31:25.360Z,13.75
2022-11-13T04:33:57.913Z,14.27
2022-11-13T04:36:29.802Z,12.70
2022-11-13T04:39:01.721Z,12.90
2022-11-13T04:41:55.296Z,12.13
2022-11-13T04:44:27.530Z,14.13
2022-11-13T04:46:59.301Z,12.90
2022-11-13T04:49:32.031Z,13.23
2022-11-13T04:52:05.343Z,11.70
2022-11-13T04:54:37.326Z,11.70
2022-11-13T04:57:09.017Z,12.17
2022-11-13T04:59:40.710Z,11.87
2022-11-13T05:02:12.464Z,11.40
2022-11-13T05:04:44.288Z,12.37
2022-11-13T05:07:16.542Z,12.10
2022-11-13T05:09:48.430Z,13.03
2022-11-13T05:12:20.666Z,11.93
2022-11-13T05:14:52.374Z,13.97
2022-11-13T05:17:24.192Z,11.90
2022-11-13T05:19:56.025Z,11.73
2022-11-13T05:22:28.012Z,12.30
2022-11-13T05:24:59.812Z,13.27
2022-11-13T05:27:31.589Z,15.30
2022-11-13T05:30:04.761Z,12.37
2022-11-13T05:32:36.579Z,11.83
2022-11-13T05:35:08.745Z,23.00
2022-11-13T05:37:40.507Z,13.07
2022-11-13T05:40:12.761Z,12.20
2022-11-13T05:42:44.732Z,12.13
2022-11-13T05:45:16.610Z,11.03
2022-11-13T05:47:50.361Z,13.47
2022-11-13T05:50:22.480Z,12.00
2022-11-13T05:52:54.303Z,11.80
2022-11-13T05:55:27.041Z,10.73
2022-11-13T05:57:59.047Z,10.90
2022-11-13T06:00:30.724Z,10.97
2022-11-13T06:03:02.417Z,11.00
2022-11-13T06:05:37.289Z,11.50
2022-11-13T06:08:08.994Z,11.00
2022-11-13T06:10:40.829Z,10.20
2022-11-13T06:13:12.670Z,9.73
2022-11-13T06:15:44.494Z,11.00
2022-11-13T06:18:25.344Z,10.50
2022-11-13T06:21:06.485Z,11.23
2022-11-13T06:23:39.515Z,10.67
2022-11-13T06:26:13.562Z,10.87
2022-11-13T06:28:45.594Z,11.00
2022-11-13T06:31:26.816Z,10.60
2022-11-13T06:33:59.528Z,10.90
2022-11-13T06:36:36.200Z,10.67
2022-11-13T06:39:09.347Z,10.10
2022-11-13T06:41:41.096Z,10.57
2022-11-13T06:44:12.802Z,11.10
2022-11-13T06:46:44.554Z,12.03
2022-11-13T06:49:16.317Z,10.67
2022-11-13T06:51:48.055Z,11.23
2022-11-13T06:54:19.749Z,9.70
2022-11-13T06:56:51.493Z,9.97
2022-11-13T06:59:23.241Z,10.93
2022-11-13T07:01:54.892Z,9.83
2022-11-13T07:04:26.589Z,10.47
2022-11-13T07:06:58.423Z,9.93
2022-11-13T07:09:31.455Z,11.83
2022-11-13T07:12:03.209Z,10.90
2022-11-13T07:14:34.939Z,10.40
2022-11-13T07:17:10.636Z,11.80
2022-11-13T07:19:42.520Z,10.73
2022-11-13T07:22:14.339Z,11.33
2022-11-13T07:24:46.336Z,11.10
2022-11-13T07:27:18.166Z,10.30
2022-11-13T07:29:49.936Z,11.27
2022-11-13T07:32:21.637Z,10.60
2022-11-13T07:34:53.320Z,12.70
2022-11-13T07:37:25.137Z,12.87
2022-11-13T07:39:56.847Z,11.23
2022-11-13T07:42:28.861Z,10.63
2022-11-13T07:45:00.757Z,11.63
2022-11-13T07:47:32.458Z,11.10
2022-11-13T07:50:09.715Z,12.77
2022-11-13T07:52:42.670Z,12.13
2022-11-13T07:55:14.590Z,11.27
2022-11-13T07:57:46.304Z,12.10
2022-11-13T08:00:18.563Z,12.57
2022-11-13T08:02:50.462Z,13.57
2022-11-13T08:05:22.758Z,12.73
2022-11-13T08:07:54.486Z,17.60
2022-11-13T08:10:26.401Z,23.60
2022-11-13T08:13:04.190Z,16.10
2022-11-13T08:15:36.195Z,19.20
2022-11-13T08:18:08.148Z,21.40
2022-11-13T08:20:40.017Z,15.53
2022-11-13T08:23:11.843Z,13.03
2022-11-13T08:25:43.868Z,13.13
2022-11-13T08:28:16.377Z,12.48
2022-11-13T08:30:49.572Z,12.80
2022-11-13T08:33:21.325Z,13.97
2022-11-13T08:35:58.283Z,11.70
2022-11-13T08:38:30.335Z,11.97
2022-11-13T08:41:08.641Z,13.30
2022-11-13T08:43:41.305Z,22.87
2022-11-13T08:46:13.200Z,20.17
2022-11-13T08:48:46.042Z,18.50
2022-11-13T08:51:18.687Z,20.47
2022-11-13T08:53:50.421Z,18.73
2022-11-13T08:56:22.312Z,15.23
2022-11-13T08:58:54.043Z,15.40
2022-11-13T09:01:25.858Z,14.33
2022-11-13T09:03:59.156Z,16.70
2022-11-13T09:06:30.977Z,14.10
2022-11-13T09:09:04.124Z,13.20
2022-11-13T09:11:35.931Z,12.60
2022-11-13T09:14:07.640Z,11.60
2022-11-13T09:16:39.816Z,10.70
2022-11-13T09:19:11.596Z,10.87
2022-11-13T09:21:43.526Z,12.85
2022-11-13T09:24:15.238Z,10.30
2022-11-13T09:26:47.007Z,10.63
2022-11-13T09:29:18.778Z,9.30
2022-11-13T09:31:50.607Z,8.90
2022-11-13T09:34:23.842Z,9.60
2022-11-13T09:36:55.538Z,8.50
2022-11-13T09:39:27.329Z,10.70
2022-11-13T09:42:15.479Z,8.73
2022-11-13T09:44:51.785Z,8.70
2022-11-13T09:47:42.335Z,8.70
2022-11-13T09:50:14.560Z,9.20
2022-11-13T09:52:46.718Z,8.90
2022-11-13T09:55:25.952Z,8.03
2022-11-13T09:58:11.293Z,8.27
2022-11-13T10:00:43.742Z,8.90
2022-11-13T10:04:00.631Z,8.40
2022-11-13T10:06:42.990Z,9.10
2022-11-13T10:09:24.772Z,8.17
2022-11-13T10:12:04.573Z,8.83
2022-11-13T10:14:45.947Z,7.95
2022-11-13T10:17:49.026Z,8.77
2022-11-13T10:20:40.186Z,8.60
2022-11-13T10:23:17.058Z,9.00
2022-11-13T10:25:52.604Z,9.93
2022-11-13T10:31:18.936Z,10.20
2022-11-13T10:33:54.838Z,8.60
2022-11-13T10:36:41.761Z,8.70
2022-11-13T10:39:13.911Z,9.90
2022-11-13T10:41:51.936Z,9.87
2022-11-13T10:44:48.651Z,9.77
2022-11-13T10:47:48.895Z,11.23
2022-11-13T10:50:23.140Z,9.77
2022-11-13T10:52:56.414Z,9.30
2022-11-13T10:55:34.053Z,8.97
2022-11-13T10:58:32.353Z,9.53
2022-11-13T11:01:15.811Z,9.73
2022-11-13T11:03:51.492Z,8.87
2022-11-13T11:07:04.546Z,8.80
2022-11-13T11:09:31.729Z,9.93
2022-11-13T11:12:22.033Z,9.13
2022-11-13T11:14:59.351Z,10.17
2022-11-13T11:17:58.909Z,9.43
2022-11-13T11:20:46.953Z,10.10
2022-11-13T11:23:24.966Z,10.70
2022-11-13T11:25:56.718Z,9.67
2022-11-13T11:28:46.464Z,10.30
2022-11-13T11:32:08.011Z,10.30
2022-11-13T11:34:59.488Z,9.40
2022-11-13T11:37:47.011Z,9.38
2022-11-13T11:40:18.922Z,10.70
2022-11-13T11:43:18.429Z,10.60
2022-11-13T11:45:50.363Z,9.43
2022-11-13T11:48:26.052Z,10.37
2022-11-13T11:51:24.208Z,11.33
2022-11-13T11:54:14.979Z,9.60
2022-11-13T11:56:53.746Z,11.50
2022-11-13T11:59:58.091Z,11.30
2022-11-13T12:02:56.059Z,8.15
2022-11-13T12:05:46.235Z,11.37
2022-11-13T12:08:50.338Z,9.53
2022-11-13T12:11:24.887Z,9.60
2022-11-13T12:14:35.606Z,9.90
2022-11-13T12:17:27.942Z,9.30
2022-11-13T12:20:08.330Z,8.77
2022-11-13T12:23:25.319Z,10.00
2022-11-13T12:26:23.006Z,9.30
2022-11-13T12:29:05.086Z,8.67
2022-11-13T12:32:01.229Z,9.97
2022-11-13T12:34:51.651Z,9.97
2022-11-13T12:37:45.113Z,9.50
2022-11-13T12:40:28.446Z,7.17
2022-11-13T12:43:23.217Z,8.50
2022-11-13T12:46:00.415Z,9.57
2022-11-13T12:48:38.717Z,8.30
2022-11-13T12:51:12.712Z,8.20
2022-11-13T12:53:44.942Z,7.47
2022-11-13T12:56:18.282Z,8.43
2022-11-13T12:59:31.578Z,7.93
2022-11-13T13:02:09.580Z,8.70
2022-11-13T13:04:59.220Z,8.07
2022-11-13T13:07:30.856Z,8.10
2022-11-13T13:10:27.235Z,7.80
2022-11-13T13:13:24.004Z,7.57
2022-11-13T13:16:06.864Z,8.67
2022-11-13T13:18:40.476Z,7.70
2022-11-13T13:21:16.459Z,7.97
2022-11-13T13:23:51.048Z,7.70
2022-11-13T13:26:28.623Z,7.00
2022-11-13T13:29:18.931Z,6.87
2022-11-13T13:32:20.832Z,8.67
2022-11-13T13:35:08.820Z,8.20
2022-11-13T13:38:13.532Z,7.80
2022-11-13T13:41:10.385Z,7.10
2022-11-13T13:44:11.373Z,7.00
2022-11-13T13:46:43.082Z,7.43
2022-11-13T13:49:20.370Z,6.80
2022-11-13T13:51:54.063Z,6.97
2022-11-13T13:54:29.162Z,6.40
2022-11-13T13:57:01.974Z,7.80
2022-11-13T13:59:36.973Z,7.30
2022-11-13T14:02:23.043Z,6.53
2022-11-13T14:04:55.246Z,7.00
2022-11-13T14:07:29.454Z,6.90
2022-11-13T14:10:15.000Z,6.80
2022-11-13T14:12:47.730Z,7.87
2022-11-13T14:15:32.307Z,8.10
2022-11-13T14:20:47.339Z,7.83
2022-11-13T14:23:25.187Z,7.40
2022-11-13T14:25:58.063Z,7.37
2022-11-13T14:28:32.912Z,8.80
2022-11-13T14:31:07.934Z,7.80
2022-11-13T14:33:49.174Z,7.77
2022-11-13T14:36:31.654Z,9.33
2022-11-13T14:39:04.237Z,9.40
2022-11-13T14:41:46.321Z,8.48
2022-11-13T14:44:32.270Z,9.70
2022-11-13T14:47:07.080Z,7.87
2022-11-13T14:49:39.053Z,6.87
2022-11-13T14:52:24.644Z,6.83
2022-11-13T14:55:15.119Z,7.50
2022-11-13T14:57:50.802Z,10.73
2022-11-13T15:00:35.090Z,14.93
2022-11-13T15:03:06.960Z,19.93
2022-11-13T15:05:38.825Z,21.20
2022-11-13T15:08:14.270Z,18.33
2022-11-13T15:10:47.307Z,18.90
2022-11-13T15:13:19.053Z,18.80
2022-11-13T15:15:50.883Z,14.43
2022-11-13T15:18:22.902Z,14.17
2022-11-13T15:20:54.694Z,11.80
2022-11-13T15:23:26.682Z,11.30
2022-11-13T15:25:58.619Z,13.00
2022-11-13T15:28:30.531Z,14.20
2022-11-13T15:31:02.473Z,16.63
2022-11-13T15:33:34.193Z,17.40
2022-11-13T15:36:08.086Z,15.50
2022-11-13T15:38:40.282Z,14.60
2022-11-13T15:41:14.820Z,12.83
2022-11-13T15:43:49.889Z,10.93
2022-11-13T15:46:23.681Z,10.97
2022-11-13T15:48:56.075Z,13.90
2022-11-13T15:51:50.185Z,10.97
2022-11-13T15:54:34.447Z,10.80
2022-11-13T15:57:08.085Z,13.33
2022-11-13T15:59:40.131Z,11.40
2022-11-13T16:02:11.964Z,11.10
2022-11-13T16:04:56.152Z,9.60
2022-11-13T16:07:31.978Z,9.10
2022-11-13T16:10:04.063Z,10.80
2022-11-13T16:12:36.754Z,10.30
2022-11-13T16:15:09.743Z,9.57
2022-11-13T16:17:45.336Z,10.10
2022-11-13T16:20:17.906Z,11.53
2022-11-13T16:22:50.322Z,10.87
2022-11-13T16:25:22.689Z,10.60
2022-11-13T16:27:54.548Z,11.13
2022-11-13T16:30:28.433Z,11.67
2022-11-13T16:33:05.666Z,11.90
2022-11-13T16:35:37.985Z,10.93
2022-11-13T16:38:12.825Z,12.00
2022-11-13T16:40:45.594Z,11.77
2022-11-13T16:43:17.395Z,13.77
2022-11-13T16:45:50.810Z,13.00
2022-11-13T16:48:23.761Z,12.10
2022-11-13T16:50:55.453Z,12.80
2022-11-13T16:53:28.120Z,12.13
2022-11-13T16:56:01.357Z,12.32
2022-11-13T16:58:33.125Z,11.73
2022-11-13T17:01:05.490Z,11.83
2022-11-13T17:03:37.228Z,12.47
2022-11-13T17:06:36.120Z,12.00
2022-11-13T17:09:07.943Z,14.30
2022-11-13T17:11:39.965Z,13.07
2022-11-13T17:14:14.565Z,13.33
2022-11-13T17:16:46.372Z,14.93
2022-11-13T17:19:18.090Z,14.17
2022-11-13T17:21:51.938Z,13.83
2022-11-13T17:24:23.765Z,16.17
2022-11-13T17:26:55.479Z,17.03
2022-11-13T17:29:27.781Z,15.10
2022-11-13T17:31:59.615Z,14.47
2022-11-13T17:34:32.268Z,15.30
2022-11-13T17:37:03.941Z,15.47
2022-11-13T17:39:35.723Z,13.80
2022-11-13T17:42:07.409Z,15.43
2022-11-13T17:44:39.091Z,15.13
2022-11-13T17:47:10.840Z,18.40
2022-11-13T17:49:42.776Z,18.30
2022-11-13T17:52:14.551Z,17.17
2022-11-13T17:54:46.320Z,15.60
2022-11-13T17:57:21.504Z,17.10
2022-11-13T17:59:55.852Z,15.30
2022-11-13T18:02:27.659Z,15.53
2022-11-13T18:05:01.350Z,18.07
2022-11-13T18:07:33.289Z,22.83
2022-11-13T18:10:05.456Z,22.23
2022-11-13T18:12:37.306Z,19.03
2022-11-13T18:15:09.198Z,19.92
2022-11-13T18:17:40.956Z,20.30
2022-11-13T18:20:12.794Z,19.60
2022-11-13T18:22:45.806Z,20.20
2022-11-13T18:25:18.186Z,18.97
2022-11-13T18:27:50.341Z,23.83
2022-11-13T18:30:22.639Z,22.03
2022-11-13T18:32:54.599Z,22.10
2022-11-13T18:35:26.411Z,21.67
2022-11-13T18:37:58.132Z,19.40
2022-11-13T18:40:29.921Z,21.80
2022-11-13T18:43:02.383Z,22.43
2022-11-13T18:45:34.068Z,24.17
2022-11-13T18:48:05.842Z,22.87
2022-11-13T18:50:37.519Z,22.07
2022-11-13T18:53:09.475Z,22.13
2022-11-13T18:55:41.248Z,22.40
2022-11-13T18:58:12.925Z,22.97
2022-11-13T19:00:47.270Z,24.37
2022-11-13T19:03:19.331Z,21.53
2022-11-13T19:05:51.135Z,22.50
2022-11-13T19:08:22.931Z,23.98
2022-11-13T19:10:54.673Z,22.50
2022-11-13T19:13:27.346Z,22.53
2022-11-13T19:16:06.867Z,23.40
2022-11-13T19:18:40.595Z,22.93
2022-11-13T19:21:14.470Z,22.87
2022-11-13T19:23:46.702Z,22.50
2022-11-13T19:26:18.404Z,22.97
2022-11-13T19:28:53.213Z,21.77
2022-11-13T19:31:27.214Z,21.20
2022-11-13T19:34:04.596Z,21.13
2022-11-13T19:36:36.732Z,20.10
2022-11-13T19:39:09.743Z,21.80
2022-11-13T19:41:42.078Z,23.07
2022-11-13T19:44:13.977Z,22.83
2022-11-13T19:46:45.795Z,23.10
2022-11-13T19:49:17.804Z,22.57
2022-11-13T19:51:49.968Z,23.00
2022-11-13T19:54:21.903Z,23.80
2022-11-13T19:56:53.636Z,25.27
2022-11-13T19:59:25.374Z,26.60
2022-11-13T20:01:57.067Z,27.70
2022-11-13T20:04:28.775Z,29.60
2022-11-13T20:07:00.618Z,28.47
2022-11-13T20:09:32.336Z,28.37
2022-11-13T20:12:04.371Z,31.27
2022-11-13T20:14:38.545Z,29.57
2022-11-13T20:17:10.509Z,27.00
2022-11-13T20:19:42.549Z,25.03
2022-11-13T20:22:14.497Z,28.53
2022-11-13T20:24:46.146Z,27.70
2022-11-13T20:27:17.927Z,28.73
2022-11-13T20:29:49.762Z,27.63
2022-11-13T20:32:21.687Z,39.97
2022-11-13T20:34:53.991Z,53.87
2022-11-13T20:37:25.645Z,48.50
2022-11-13T20:39:57.475Z,36.00
2022-11-13T20:42:29.386Z,18.23
2022-11-13T20:45:01.599Z,25.13
2022-11-13T20:47:34.581Z,33.90
2022-11-13T20:50:07.518Z,20.73
2022-11-13T20:52:39.241Z,17.40
2022-11-13T20:55:10.925Z,17.43
2022-11-13T20:57:42.582Z,17.60
2022-11-13T21:00:14.727Z,17.20
2022-11-13T21:02:46.563Z,16.40
2022-11-13T21:05:18.275Z,16.47
2022-11-13T21:07:50.014Z,17.50
2022-11-13T21:10:21.768Z,15.97
2022-11-13T21:12:53.476Z,16.60
2022-11-13T21:15:25.168Z,16.97
2022-11-13T21:17:58.502Z,16.20
2022-11-13T21:20:30.251Z,15.87
2022-11-13T21:23:03.001Z,16.37
2022-11-13T21:25:34.728Z,14.13
2022-11-13T21:28:07.165Z,15.80
2022-11-13T21:30:39.282Z,16.60
2022-11-13T21:33:10.971Z,15.80
2022-11-13T21:35:42.624Z,15.50
2022-11-13T21:38:14.653Z,15.53
2022-11-13T21:41:06.318Z,14.53
2022-11-13T21:43:38.075Z,13.80
2022-11-13T21:46:09.830Z,14.60
2022-11-13T21:48:42.285Z,15.32
2022-11-13T21:51:14.284Z,15.80
2022-11-13T21:53:46.311Z,14.93
2022-11-13T21:56:18.359Z,16.03
2022-11-13T21:58:50.352Z,15.60
2022-11-13T22:01:23.809Z,16.87
2022-11-13T22:03:55.760Z,15.83
2022-11-13T22:06:32.530Z,15.23
2022-11-13T22:09:12.598Z,16.10
2022-11-13T22:11:44.644Z,16.20
2022-11-13T22:14:16.493Z,14.90
2022-11-13T22:16:48.553Z,16.33
2022-11-13T22:19:25.599Z,17.52
2022-11-13T22:21:59.461Z,17.10
2022-11-13T22:24:31.229Z,15.37
2022-11-13T22:27:02.987Z,15.37
2022-11-13T22:29:34.775Z,15.47
2022-11-13T22:32:07.928Z,18.37
2022-11-13T22:34:39.647Z,16.37
2022-11-13T22:37:11.319Z,17.07
2022-11-13T22:39:42.977Z,15.90
2022-11-13T22:42:16.285Z,16.10
2022-11-13T22:44:56.012Z,15.70
2022-11-13T22:47:28.205Z,15.27
2022-11-13T22:50:00.738Z,16.47
2022-11-13T22:52:32.418Z,14.60
2022-11-13T22:55:04.457Z,15.00
2022-11-13T22:57:36.196Z,13.20
2022-11-13T23:00:09.416Z,15.23
2022-11-13T23:02:46.964Z,13.20
2022-11-13T23:05:19.130Z,13.53
2022-11-13T23:07:50.901Z,13.57
2022-11-13T23:10:25.365Z,15.47
2022-11-13T23:12:57.119Z,13.80
2022-11-13T23:15:29.419Z,13.93
2022-11-13T23:18:03.608Z,13.03
2022-11-13T23:20:42.955Z,15.23
2022-11-13T23:23:16.918Z,14.67
2022-11-13T23:25:48.589Z,15.17
2022-11-13T23:28:20.671Z,13.30
2022-11-13T23:30:52.940Z,13.57
2022-11-13T23:33:24.993Z,13.70
2022-11-13T23:35:58.007Z,13.70
2022-11-13T23:38:30.447Z,14.10
2022-11-13T23:41:02.724Z,11.97
2022-11-13T23:44:02.240Z,12.00
2022-11-13T23:46:26.337Z,11.97
2022-11-13T23:48:58.057Z,12.77
2022-11-13T23:51:29.986Z,11.60
2022-11-13T23:54:01.877Z,12.40
2022-11-13T23:56:35.407Z,12.57
2022-11-13T23:59:07.332Z,11.90
